createdAt,value
2017-12-28T00:01:27.555Z,9.00
2017-12-28T00:03:54.428Z,8.98
2017-12-28T00:06:21.225Z,8.75
2017-12-28T00:08:48.950Z,8.95
2017-12-28T00:11:15.757Z,9.15
2017-12-28T00:13:42.602Z,9.15
2017-12-28T00:16:09.762Z,9.25
2017-12-28T00:18:36.573Z,8.77
2017-12-28T00:21:03.386Z,9.13
2017-12-28T00:23:30.497Z,9.45
2017-12-28T00:25:57.302Z,9.75
2017-12-28T00:28:24.146Z,9.40
2017-12-28T00:30:51.011Z,9.55
2017-12-28T00:33:17.830Z,10.30
2017-12-28T00:35:44.652Z,9.40
2017-12-28T00:38:11.761Z,10.40
2017-12-28T00:40:38.581Z,10.00
2017-12-28T00:43:05.430Z,9.85
2017-12-28T00:45:32.249Z,10.05
2017-12-28T00:47:59.103Z,9.70
2017-12-28T00:50:26.197Z,9.75
2017-12-28T00:52:53.090Z,9.82
2017-12-28T00:55:20.177Z,10.30
2017-12-28T00:57:47.010Z,10.30
2017-12-28T01:00:13.878Z,10.77
2017-12-28T01:02:40.759Z,9.90
2017-12-28T01:05:07.573Z,10.00
2017-12-28T01:07:34.698Z,9.75
2017-12-28T01:10:01.752Z,10.40
2017-12-28T01:12:28.564Z,10.30
2017-12-28T01:14:55.442Z,11.05
2017-12-28T01:17:22.485Z,11.80
2017-12-28T01:19:49.334Z,10.35
2017-12-28T01:22:16.194Z,11.30
2017-12-28T01:24:43.005Z,11.48
2017-12-28T01:27:10.079Z,11.57
2017-12-28T01:29:37.214Z,11.15
2017-12-28T01:32:04.022Z,11.18
2017-12-28T01:34:31.101Z,10.93
2017-12-28T01:36:58.011Z,11.05
2017-12-28T01:39:24.832Z,11.38
2017-12-28T01:41:51.709Z,11.68
2017-12-28T01:44:18.781Z,12.00
2017-12-28T01:46:45.830Z,12.55
2017-12-28T01:49:12.687Z,11.63
2017-12-28T01:51:39.525Z,12.20
2017-12-28T01:54:06.665Z,11.70
2017-12-28T01:56:33.511Z,12.02
2017-12-28T01:59:00.378Z,12.20
2017-12-28T02:01:27.209Z,12.60
2017-12-28T02:03:54.318Z,13.07
2017-12-28T02:06:21.148Z,13.20
2017-12-28T02:08:48.238Z,13.88
2017-12-28T02:11:15.390Z,12.75
2017-12-28T02:13:42.255Z,13.00
2017-12-28T02:16:09.142Z,12.90
2017-12-28T02:18:35.978Z,12.20
2017-12-28T02:21:02.835Z,12.52
2017-12-28T02:23:29.917Z,12.65
2017-12-28T02:25:56.957Z,13.20
2017-12-28T02:28:23.826Z,12.25
2017-12-28T02:30:50.647Z,12.57
2017-12-28T02:33:17.491Z,12.60
2017-12-28T02:35:44.637Z,12.77
2017-12-28T02:38:11.449Z,13.02
2017-12-28T02:40:38.493Z,13.50
2017-12-28T02:43:05.338Z,13.27
2017-12-28T02:45:32.174Z,12.60
2017-12-28T02:47:59.025Z,12.90
2017-12-28T02:50:25.910Z,12.83
2017-12-28T02:52:52.759Z,12.53
2017-12-28T02:55:19.561Z,13.60
2017-12-28T02:57:46.422Z,13.80
2017-12-28T03:00:13.259Z,12.90
2017-12-28T03:02:40.333Z,13.30
2017-12-28T03:05:07.489Z,13.87
2017-12-28T03:07:34.334Z,12.90
2017-12-28T03:10:01.142Z,14.50
2017-12-28T03:12:27.988Z,14.05
2017-12-28T03:14:54.796Z,13.63
2017-12-28T03:17:21.638Z,14.50
2017-12-28T03:19:48.744Z,13.90
2017-12-28T03:22:15.581Z,14.52
2017-12-28T03:24:42.386Z,14.73
2017-12-28T03:27:09.229Z,14.17
2017-12-28T03:29:36.313Z,14.43
2017-12-28T03:32:03.470Z,15.40
2017-12-28T03:34:30.350Z,15.73
2017-12-28T03:36:57.457Z,15.70
2017-12-28T03:39:24.313Z,15.20
2017-12-28T03:41:51.152Z,15.40
2017-12-28T03:44:17.985Z,16.20
2017-12-28T03:46:44.837Z,16.20
2017-12-28T03:49:11.698Z,16.30
2017-12-28T03:51:38.554Z,16.73
2017-12-28T03:54:05.676Z,15.20
2017-12-28T03:56:32.516Z,15.38
2017-12-28T03:58:59.363Z,16.77
2017-12-28T04:01:26.215Z,16.87
2017-12-28T04:03:53.080Z,16.08
2017-12-28T04:06:20.113Z,16.52
2017-12-28T04:08:46.966Z,17.60
2017-12-28T04:11:14.081Z,16.33
2017-12-28T04:13:40.893Z,15.00
2017-12-28T04:16:07.712Z,15.60
2017-12-28T04:18:34.561Z,16.48
2017-12-28T04:21:01.661Z,15.60
2017-12-28T04:23:28.506Z,15.80
2017-12-28T04:25:55.658Z,15.45
2017-12-28T04:28:22.466Z,19.83
2017-12-28T04:30:49.273Z,26.17
2017-12-28T04:33:16.109Z,16.10
2017-12-28T04:35:42.933Z,15.65
2017-12-28T04:38:09.753Z,15.77
2017-12-28T04:40:36.917Z,15.40
2017-12-28T04:43:03.966Z,15.43
2017-12-28T04:45:30.797Z,15.15
2017-12-28T04:48:31.721Z,16.10
2017-12-28T04:50:58.561Z,23.00
2017-12-28T04:53:25.377Z,17.48
2017-12-28T04:55:52.484Z,14.20
2017-12-28T04:58:19.338Z,14.30
2017-12-28T05:00:46.178Z,14.32
2017-12-28T05:03:13.005Z,14.35
2017-12-28T05:05:39.850Z,14.40
2017-12-28T05:08:06.665Z,14.87
2017-12-28T05:10:33.826Z,15.20
2017-12-28T05:13:00.902Z,14.52
2017-12-28T05:15:27.709Z,15.65
2017-12-28T05:17:54.545Z,15.18
2017-12-28T05:20:21.633Z,15.50
2017-12-28T05:22:48.793Z,15.38
2017-12-28T05:25:15.625Z,15.07
2017-12-28T05:27:42.469Z,14.70
2017-12-28T05:30:09.275Z,15.27
2017-12-28T05:32:36.109Z,15.32
2017-12-28T05:35:03.205Z,16.00
2017-12-28T05:37:30.013Z,15.50
2017-12-28T05:39:56.845Z,14.93
2017-12-28T05:42:23.666Z,15.50
2017-12-28T05:44:50.786Z,14.50
2017-12-28T05:47:17.654Z,15.75
2017-12-28T05:49:44.491Z,14.85
2017-12-28T05:52:11.308Z,15.25
2017-12-28T05:54:38.466Z,14.77
2017-12-28T05:57:05.631Z,14.30
2017-12-28T05:59:32.438Z,15.30
2017-12-28T06:01:59.269Z,14.82
2017-12-28T06:04:26.115Z,14.50
2017-12-28T06:06:52.925Z,14.70
2017-12-28T06:09:19.818Z,15.15
2017-12-28T06:11:46.977Z,15.45
2017-12-28T06:14:13.804Z,15.48
2017-12-28T06:16:40.689Z,15.50
2017-12-28T06:19:07.505Z,15.75
2017-12-28T06:21:34.556Z,15.27
2017-12-28T06:24:01.427Z,15.18
2017-12-28T06:26:28.262Z,15.40
2017-12-28T06:28:55.407Z,14.90
2017-12-28T06:31:22.287Z,16.45
2017-12-28T06:33:49.390Z,15.30
2017-12-28T06:36:16.542Z,15.73
2017-12-28T06:38:46.768Z,15.57
2017-12-28T06:41:20.988Z,15.80
2017-12-28T06:43:49.328Z,14.32
2017-12-28T06:46:16.146Z,15.43
2017-12-28T06:48:43.245Z,15.00
2017-12-28T06:51:10.089Z,14.75
2017-12-28T06:53:36.938Z,15.18
2017-12-28T06:56:04.081Z,14.85
2017-12-28T06:58:30.953Z,14.20
2017-12-28T07:00:57.778Z,15.20
2017-12-28T07:03:24.917Z,14.80
2017-12-28T07:05:51.959Z,14.75
2017-12-28T07:08:18.803Z,15.90
2017-12-28T07:10:45.647Z,16.33
2017-12-28T07:13:12.507Z,14.27
2017-12-28T07:15:39.313Z,15.45
2017-12-28T07:18:06.389Z,16.27
2017-12-28T07:20:33.548Z,15.10
2017-12-28T07:23:00.349Z,16.33
2017-12-28T07:25:27.197Z,15.87
2017-12-28T07:27:54.082Z,15.30
2017-12-28T07:30:20.944Z,15.85
2017-12-28T07:32:47.790Z,16.62
2017-12-28T07:35:14.642Z,15.83
2017-12-28T07:37:41.486Z,16.30
2017-12-28T07:40:08.334Z,16.80
2017-12-28T07:42:35.199Z,17.15
2017-12-28T07:45:02.277Z,17.17
2017-12-28T07:47:29.104Z,16.65
2017-12-28T07:49:55.979Z,16.08
2017-12-28T07:52:22.818Z,16.40
2017-12-28T07:54:49.962Z,16.58
2017-12-28T07:57:16.818Z,17.67
2017-12-28T07:59:43.902Z,15.35
2017-12-28T08:02:10.928Z,15.57
2017-12-28T08:04:37.808Z,14.17
2017-12-28T08:07:04.670Z,12.30
2017-12-28T08:09:31.709Z,12.18
2017-12-28T08:11:58.544Z,13.93
2017-12-28T08:14:25.557Z,8.65
2017-12-28T08:16:52.525Z,5.50
2017-12-28T08:19:19.410Z,5.50
2017-12-28T08:21:46.255Z,5.07
2017-12-28T08:24:13.411Z,4.10
2017-12-28T08:26:40.559Z,3.70
2017-12-28T08:29:07.381Z,2.80
2017-12-28T08:31:34.184Z,2.35
2017-12-28T08:34:01.017Z,2.50
2017-12-28T08:36:28.136Z,2.10
2017-12-28T08:38:55.182Z,2.00
2017-12-28T08:41:22.017Z,2.10
2017-12-28T08:43:48.857Z,2.00
2017-12-28T08:46:15.645Z,1.80
2017-12-28T08:48:42.478Z,2.00
2017-12-28T08:51:09.602Z,2.10
2017-12-28T08:53:36.401Z,1.50
2017-12-28T08:56:03.262Z,1.40
2017-12-28T08:58:30.095Z,1.80
2017-12-28T09:00:57.183Z,1.60
2017-12-28T09:03:24.039Z,1.35
2017-12-28T09:05:50.862Z,1.85
2017-12-28T09:08:17.715Z,1.20
2017-12-28T09:10:44.566Z,1.33
2017-12-28T09:13:11.391Z,1.57
2017-12-28T09:15:38.445Z,1.25
2017-12-28T09:18:05.301Z,1.60
2017-12-28T09:20:32.125Z,1.40
2017-12-28T09:22:58.921Z,1.40
2017-12-28T09:25:25.783Z,1.40
2017-12-28T09:27:52.589Z,1.40
2017-12-28T09:30:19.400Z,4.30
2017-12-28T09:32:46.270Z,3.12
2017-12-28T09:35:13.085Z,2.15
2017-12-28T09:37:40.239Z,2.12
2017-12-28T09:40:07.146Z,2.40
2017-12-28T09:42:33.986Z,2.60
2017-12-28T09:45:00.829Z,2.97
2017-12-28T09:47:27.666Z,4.50
2017-12-28T09:49:54.465Z,4.00
2017-12-28T09:52:21.289Z,2.97
2017-12-28T09:54:48.102Z,2.65
2017-12-28T09:57:14.944Z,3.45
2017-12-28T09:59:41.749Z,3.85
2017-12-28T10:02:08.619Z,4.00
2017-12-28T10:04:35.490Z,3.65
2017-12-28T10:07:02.561Z,3.47
2017-12-28T10:09:29.436Z,3.10
2017-12-28T10:11:56.283Z,3.37
2017-12-28T10:14:23.081Z,3.20
2017-12-28T10:16:49.902Z,3.00
2017-12-28T10:19:16.738Z,3.90
2017-12-28T10:21:43.557Z,3.37
2017-12-28T10:24:10.410Z,4.30
2017-12-28T10:26:37.513Z,3.20
2017-12-28T10:29:04.560Z,2.90
2017-12-28T10:31:31.741Z,3.20
2017-12-28T10:33:58.858Z,2.85
2017-12-28T10:36:25.905Z,3.45
2017-12-28T10:38:52.741Z,3.97
2017-12-28T10:41:19.619Z,3.20
2017-12-28T10:43:46.475Z,2.90
2017-12-28T10:46:13.354Z,2.90
2017-12-28T10:48:40.429Z,2.80
2017-12-28T10:51:07.249Z,3.05
2017-12-28T10:53:34.082Z,2.70
2017-12-28T10:56:01.166Z,2.95
2017-12-28T10:58:27.968Z,3.10
2017-12-28T11:00:54.796Z,2.40
2017-12-28T11:03:21.646Z,2.83
2017-12-28T11:05:48.466Z,3.83
2017-12-28T11:08:15.321Z,2.40
2017-12-28T11:10:42.431Z,2.45
2017-12-28T11:13:09.262Z,2.30
2017-12-28T11:15:36.087Z,2.37
2017-12-28T11:18:02.931Z,2.42
2017-12-28T11:20:29.767Z,2.20
2017-12-28T11:22:56.593Z,2.00
2017-12-28T11:25:23.447Z,2.20
2017-12-28T11:27:50.254Z,2.20
2017-12-28T11:30:17.118Z,2.20
2017-12-28T11:32:43.915Z,2.27
2017-12-28T11:35:10.962Z,1.70
2017-12-28T11:37:37.828Z,1.90
2017-12-28T11:40:04.669Z,2.90
2017-12-28T11:42:31.485Z,2.60
2017-12-28T11:44:58.361Z,2.40
2017-12-28T11:47:25.203Z,2.65
2017-12-28T11:49:52.091Z,2.22
2017-12-28T11:52:18.950Z,2.40
2017-12-28T11:54:46.122Z,2.80
2017-12-28T11:57:12.951Z,3.00
2017-12-28T11:59:40.118Z,2.80
2017-12-28T12:02:06.948Z,3.10
2017-12-28T12:04:33.802Z,2.90
2017-12-28T12:07:00.957Z,2.50
2017-12-28T12:09:27.749Z,2.45
2017-12-28T12:11:54.594Z,2.80
2017-12-28T12:14:21.786Z,2.40
2017-12-28T12:16:48.613Z,2.70
2017-12-28T12:19:15.418Z,6.00
2017-12-28T12:21:42.253Z,3.35
2017-12-28T12:24:09.098Z,3.20
2017-12-28T12:26:35.909Z,2.50
2017-12-28T12:29:02.783Z,2.40
2017-12-28T12:31:29.593Z,3.00
2017-12-28T12:33:56.399Z,2.35
2017-12-28T12:36:23.262Z,2.80
2017-12-28T12:38:50.317Z,3.10
2017-12-28T12:41:17.138Z,2.83
2017-12-28T12:43:43.962Z,3.30
2017-12-28T12:46:10.794Z,3.80
2017-12-28T12:48:37.645Z,2.67
2017-12-28T12:51:04.493Z,2.55
2017-12-28T12:53:31.330Z,2.60
2017-12-28T12:55:58.125Z,2.40
2017-12-28T12:58:24.997Z,2.20
2017-12-28T13:00:51.801Z,2.83
2017-12-28T13:03:18.605Z,2.60
2017-12-28T13:05:45.441Z,2.40
2017-12-28T13:08:12.552Z,2.97
2017-12-28T13:10:39.354Z,2.80
2017-12-28T13:13:06.211Z,2.92
2017-12-28T13:15:33.052Z,5.53
2017-12-28T13:17:59.896Z,3.87
2017-12-28T13:20:26.729Z,2.70
2017-12-28T13:22:53.804Z,2.70
2017-12-28T13:25:20.646Z,2.78
2017-12-28T13:27:47.546Z,2.55
2017-12-28T13:30:14.642Z,2.60
2017-12-28T13:32:41.797Z,2.60
2017-12-28T13:35:08.946Z,2.50
2017-12-28T13:37:35.757Z,2.62
2017-12-28T13:40:02.577Z,2.40
2017-12-28T13:42:29.447Z,2.33
2017-12-28T13:44:56.245Z,2.08
2017-12-28T13:47:23.054Z,1.90
2017-12-28T13:49:49.986Z,2.07
2017-12-28T13:52:16.785Z,2.20
2017-12-28T13:54:43.894Z,2.90
2017-12-28T13:57:11.002Z,2.50
2017-12-28T13:59:37.850Z,2.67
2017-12-28T14:02:04.646Z,2.60
2017-12-28T14:04:31.507Z,2.65
2017-12-28T14:06:58.309Z,2.47
2017-12-28T14:09:25.566Z,2.80
2017-12-28T14:11:52.401Z,2.70
2017-12-28T14:14:19.226Z,2.47
2017-12-28T14:16:46.057Z,2.85
2017-12-28T14:19:13.142Z,2.10
2017-12-28T14:21:40.190Z,2.60
2017-12-28T14:24:06.991Z,2.87
2017-12-28T14:26:33.832Z,2.80
2017-12-28T14:29:00.666Z,2.80
2017-12-28T14:31:27.770Z,2.80
2017-12-28T14:33:54.629Z,2.60
2017-12-28T14:36:21.762Z,2.40
2017-12-28T14:38:48.595Z,2.60
2017-12-28T14:41:15.450Z,3.20
2017-12-28T14:43:42.257Z,2.50
2017-12-28T14:46:09.104Z,2.58
2017-12-28T14:48:35.962Z,2.20
2017-12-28T14:51:02.831Z,2.60
2017-12-28T14:53:29.649Z,2.50
2017-12-28T14:55:56.516Z,2.20
2017-12-28T14:58:23.357Z,3.20
2017-12-28T15:00:50.194Z,2.70
2017-12-28T15:03:17.029Z,3.00
2017-12-28T15:05:44.089Z,3.33
2017-12-28T15:08:10.897Z,2.72
2017-12-28T15:10:37.974Z,4.03
2017-12-28T15:13:05.026Z,3.67
2017-12-28T15:15:31.862Z,3.37
2017-12-28T15:17:59.013Z,2.67
2017-12-28T15:20:25.832Z,2.50
2017-12-28T15:22:52.659Z,2.50
2017-12-28T15:25:19.519Z,2.78
2017-12-28T15:27:46.359Z,2.60
2017-12-28T15:30:13.197Z,2.60
2017-12-28T15:32:40.025Z,2.12
2017-12-28T15:35:06.883Z,2.23
2017-12-28T15:37:33.964Z,2.30
2017-12-28T15:40:00.842Z,2.37
2017-12-28T15:42:27.964Z,2.33
2017-12-28T15:44:55.109Z,2.35
2017-12-28T15:47:21.940Z,2.20
2017-12-28T15:49:48.787Z,2.67
2017-12-28T15:52:15.581Z,2.20
2017-12-28T15:54:42.453Z,2.10
2017-12-28T15:57:09.258Z,1.90
2017-12-28T15:59:36.077Z,2.20
2017-12-28T16:02:02.949Z,2.10
2017-12-28T16:04:29.792Z,1.80
2017-12-28T16:06:56.627Z,2.10
2017-12-28T16:09:23.461Z,1.83
2017-12-28T16:11:50.263Z,1.87
2017-12-28T16:14:17.092Z,1.87
2017-12-28T16:16:43.917Z,1.80
2017-12-28T16:19:10.760Z,1.60
2017-12-28T16:21:37.569Z,1.52
2017-12-28T16:24:04.421Z,1.80
2017-12-28T16:26:31.242Z,1.90
2017-12-28T16:28:58.082Z,1.60
2017-12-28T16:31:24.934Z,1.90
2017-12-28T16:33:51.974Z,1.50
2017-12-28T16:36:18.808Z,1.50
2017-12-28T16:38:45.670Z,1.67
2017-12-28T16:41:12.502Z,1.60
2017-12-28T16:43:39.335Z,1.70
2017-12-28T16:46:06.475Z,1.90
2017-12-28T16:48:34.495Z,1.90
2017-12-28T16:51:01.919Z,1.80
2017-12-28T16:53:28.775Z,2.20
2017-12-28T16:55:55.914Z,2.05
2017-12-28T16:58:22.962Z,2.37
2017-12-28T17:00:49.800Z,2.00
2017-12-28T17:03:16.625Z,1.98
2017-12-28T17:05:43.459Z,2.30
2017-12-28T17:08:10.543Z,2.50
2017-12-28T17:10:37.387Z,2.50
2017-12-28T17:13:04.241Z,2.60
2017-12-28T17:15:31.100Z,3.10
2017-12-28T17:17:58.221Z,2.35
2017-12-28T17:20:25.029Z,2.70
2017-12-28T17:22:52.230Z,3.10
2017-12-28T17:25:19.079Z,2.67
2017-12-28T17:27:45.877Z,2.50
2017-12-28T17:30:12.720Z,3.20
2017-12-28T17:32:39.596Z,3.05
2017-12-28T17:35:06.750Z,2.95
2017-12-28T17:37:33.564Z,2.90
2017-12-28T17:40:00.635Z,2.70
2017-12-28T17:42:27.442Z,2.90
2017-12-28T17:44:54.627Z,2.50
2017-12-28T17:47:21.463Z,4.20
2017-12-28T17:49:48.269Z,3.00
2017-12-28T17:52:15.144Z,3.62
2017-12-28T17:54:41.975Z,2.60
2017-12-28T17:57:08.814Z,2.08
2017-12-28T17:59:35.649Z,2.60
2017-12-28T18:02:02.730Z,3.10
2017-12-28T18:04:29.883Z,3.10
2017-12-28T18:06:56.719Z,2.90
2017-12-28T18:09:23.572Z,2.97
2017-12-28T18:11:50.830Z,2.72
2017-12-28T18:14:17.733Z,2.80
2017-12-28T18:16:44.559Z,3.37
2017-12-28T18:19:11.785Z,3.10
2017-12-28T18:21:38.905Z,3.17
2017-12-28T18:24:05.957Z,3.30
2017-12-28T18:26:33.006Z,3.20
2017-12-28T18:29:00.183Z,3.40
2017-12-28T18:31:27.026Z,3.80
2017-12-28T18:33:53.833Z,3.10
2017-12-28T18:36:20.935Z,2.92
2017-12-28T18:38:48.038Z,3.40
2017-12-28T18:41:14.845Z,3.33
2017-12-28T18:43:41.722Z,2.70
2017-12-28T18:46:08.575Z,2.65
2017-12-28T18:48:35.419Z,2.60
2017-12-28T18:51:02.283Z,3.05
2017-12-28T18:53:29.317Z,2.80
2017-12-28T18:55:56.146Z,3.35
2017-12-28T18:58:23.000Z,2.97
2017-12-28T19:00:49.811Z,2.90
2017-12-28T19:03:16.667Z,3.22
2017-12-28T19:05:43.534Z,3.87
2017-12-28T19:08:10.362Z,3.60
2017-12-28T19:10:37.169Z,3.40
2017-12-28T19:13:04.023Z,3.30
2017-12-28T19:15:31.103Z,3.37
2017-12-28T19:17:57.930Z,3.27
2017-12-28T19:20:24.750Z,3.17
2017-12-28T19:22:51.579Z,3.37
2017-12-28T19:25:18.624Z,3.72
2017-12-28T19:27:45.492Z,7.32
2017-12-28T19:30:12.319Z,3.55
2017-12-28T19:32:39.146Z,3.70
2017-12-28T19:35:05.984Z,4.00
2017-12-28T19:37:33.058Z,4.10
2017-12-28T19:40:00.147Z,4.40
2017-12-28T19:42:27.006Z,4.30
2017-12-28T19:44:54.145Z,4.87
2017-12-28T19:47:20.947Z,4.97
2017-12-28T19:49:47.807Z,4.90
2017-12-28T19:52:14.644Z,5.20
2017-12-28T19:54:41.445Z,5.15
2017-12-28T19:57:08.277Z,5.70
2017-12-28T19:59:35.120Z,5.40
2017-12-28T20:02:01.941Z,5.62
2017-12-28T20:07:14.267Z,5.43
2017-12-28T20:09:41.094Z,5.37
2017-12-28T20:12:07.935Z,5.37
2017-12-28T20:14:34.758Z,5.47
2017-12-28T20:17:01.595Z,5.70
2017-12-28T20:19:28.414Z,5.70
2017-12-28T20:24:34.542Z,5.93
2017-12-28T20:27:01.581Z,6.40
2017-12-28T20:29:28.386Z,5.62
2017-12-28T20:31:55.296Z,6.40
2017-12-28T20:34:22.137Z,6.20
2017-12-28T20:36:49.385Z,9.00
2017-12-28T20:39:16.539Z,10.67
2017-12-28T20:41:43.346Z,6.55
2017-12-28T20:44:10.157Z,6.90
2017-12-28T20:46:37.275Z,6.30
2017-12-28T20:49:04.111Z,6.62
2017-12-28T20:51:30.936Z,6.95
2017-12-28T20:53:57.754Z,6.90
2017-12-28T20:56:24.566Z,6.50
2017-12-28T20:58:51.406Z,6.90
2017-12-28T21:01:18.266Z,6.87
2017-12-28T21:03:45.102Z,6.87
2017-12-28T21:06:12.223Z,6.97
2017-12-28T21:08:39.053Z,7.00
2017-12-28T21:11:05.889Z,6.62
2017-12-28T21:13:32.708Z,6.78
2017-12-28T21:15:59.575Z,6.70
2017-12-28T21:18:26.650Z,7.15
2017-12-28T21:20:53.495Z,6.80
2017-12-28T21:23:20.325Z,7.43
2017-12-28T21:25:47.479Z,7.60
2017-12-28T21:28:14.625Z,7.30
2017-12-28T21:30:41.466Z,7.00
2017-12-28T21:33:08.304Z,7.45
2017-12-28T21:35:35.150Z,7.47
2017-12-28T21:38:02.312Z,7.20
2017-12-28T21:40:29.145Z,7.12
2017-12-28T21:42:55.974Z,7.20
2017-12-28T21:45:23.251Z,6.60
2017-12-28T21:47:50.399Z,6.65
2017-12-28T21:50:17.254Z,7.00
2017-12-28T21:52:44.081Z,6.80
2017-12-28T21:55:10.919Z,6.27
2017-12-28T21:57:37.754Z,9.48
2017-12-28T22:00:04.879Z,6.32
2017-12-28T22:02:31.726Z,6.57
2017-12-28T22:04:58.563Z,6.55
2017-12-28T22:07:25.388Z,6.75
2017-12-28T22:09:52.233Z,6.60
2017-12-28T22:12:19.032Z,6.00
2017-12-28T22:14:45.898Z,6.00
2017-12-28T22:17:13.031Z,6.05
2017-12-28T22:19:39.863Z,5.75
2017-12-28T22:22:07.026Z,5.90
2017-12-28T22:24:33.842Z,5.87
2017-12-28T22:27:00.658Z,5.80
2017-12-28T22:29:27.916Z,6.95
2017-12-28T22:31:54.740Z,6.40
2017-12-28T22:34:21.537Z,6.60
2017-12-28T22:36:48.370Z,6.40
2017-12-28T22:39:15.177Z,6.18
2017-12-28T22:41:42.015Z,6.72
2017-12-28T22:44:09.074Z,6.90
2017-12-28T22:46:36.106Z,6.25
2017-12-28T22:49:02.917Z,6.55
2017-12-28T22:51:29.750Z,6.75
2017-12-28T22:53:56.906Z,6.18
2017-12-28T22:56:23.726Z,6.10
2017-12-28T22:58:50.590Z,6.28
2017-12-28T23:01:17.438Z,6.05
2017-12-28T23:03:44.278Z,6.25
2017-12-28T23:06:11.150Z,5.95
2017-12-28T23:08:38.218Z,6.07
2017-12-28T23:11:05.054Z,6.18
2017-12-28T23:13:31.897Z,5.60
2017-12-28T23:15:58.802Z,5.60
2017-12-28T23:18:25.597Z,5.93
2017-12-28T23:20:52.457Z,6.18
2017-12-28T23:23:19.529Z,5.93
2017-12-28T23:25:46.581Z,6.37
2017-12-28T23:28:13.447Z,7.32
2017-12-28T23:30:40.257Z,5.97
2017-12-28T23:33:07.313Z,5.78
2017-12-28T23:35:34.174Z,6.30
2017-12-28T23:38:01.308Z,6.35
2017-12-28T23:40:28.461Z,5.53
2017-12-28T23:42:55.318Z,5.90
2017-12-28T23:45:22.119Z,5.60
2017-12-28T23:47:49.157Z,6.03
2017-12-28T23:50:15.997Z,5.70
2017-12-28T23:52:42.813Z,5.75
2017-12-28T23:55:09.927Z,5.20
2017-12-28T23:57:37.086Z,5.40
